sensor_id;sensor_type;location;lat;lon;timestamp;P1;durP1;ratioP1;P2;durP2;ratioP2
61393;SDS011;48555;50.952;-0.120;2023-07-16T00:00:50;20.73;;;4.28;;
61393;SDS011;48555;50.952;-0.120;2023-07-16T00:03:16;13.27;;;3.60;;
61393;SDS011;48555;50.952;-0.120;2023-07-16T00:05:41;14.80;;;3.65;;
61393;SDS011;48555;50.952;-0.120;2023-07-16T00:08:07;18.80;;;3.92;;
61393;SDS011;48555;50.952;-0.120;2023-07-16T00:10:35;16.98;;;3.58;;
61393;SDS011;48555;50.952;-0.120;2023-07-16T00:13:01;19.30;;;4.05;;
61393;SDS011;48555;50.952;-0.120;2023-07-16T00:15:28;17.55;;;3.80;;
61393;SDS011;48555;50.952;-0.120;2023-07-16T00:17:53;24.38;;;4.00;;
61393;SDS011;48555;50.952;-0.120;2023-07-16T00:20:20;17.77;;;4.38;;
61393;SDS011;48555;50.952;-0.120;2023-07-16T00:22:45;16.15;;;3.15;;
61393;SDS011;48555;50.952;-0.120;2023-07-16T00:25:10;12.13;;;3.60;;
61393;SDS011;48555;50.952;-0.120;2023-07-16T00:27:36;13.00;;;3.08;;
61393;SDS011;48555;50.952;-0.120;2023-07-16T00:30:01;14.85;;;3.33;;
61393;SDS011;48555;50.952;-0.120;2023-07-16T00:32:28;13.98;;;3.25;;
61393;SDS011;48555;50.952;-0.120;2023-07-16T00:34:53;11.70;;;3.00;;
61393;SDS011;48555;50.952;-0.120;2023-07-16T00:37:19;14.18;;;2.85;;
61393;SDS011;48555;50.952;-0.120;2023-07-16T00:39:44;16.30;;;3.17;;
61393;SDS011;48555;50.952;-0.120;2023-07-16T00:42:09;19.05;;;3.22;;
61393;SDS011;48555;50.952;-0.120;2023-07-16T00:44:35;13.90;;;2.85;;
61393;SDS011;48555;50.952;-0.120;2023-07-16T00:47:00;15.23;;;3.25;;
61393;SDS011;48555;50.952;-0.120;2023-07-16T00:49:26;16.33;;;3.92;;
61393;SDS011;48555;50.952;-0.120;2023-07-16T00:51:52;15.48;;;2.95;;
61393;SDS011;48555;50.952;-0.120;2023-07-16T00:54:19;13.45;;;2.63;;
61393;SDS011;48555;50.952;-0.120;2023-07-16T00:56:44;14.02;;;2.75;;
61393;SDS011;48555;50.952;-0.120;2023-07-16T00:59:10;11.75;;;2.80;;
61393;SDS011;48555;50.952;-0.120;2023-07-16T01:01:36;15.07;;;3.22;;
61393;SDS011;48555;50.952;-0.120;2023-07-16T01:04:03;14.68;;;3.13;;
61393;SDS011;48555;50.952;-0.120;2023-07-16T01:06:36;16.65;;;3.30;;
61393;SDS011;48555;50.952;-0.120;2023-07-16T01:09:11;16.52;;;3.55;;
61393;SDS011;48555;50.952;-0.120;2023-07-16T01:11:42;18.50;;;3.70;;
61393;SDS011;48555;50.952;-0.120;2023-07-16T01:14:08;14.23;;;3.40;;
61393;SDS011;48555;50.952;-0.120;2023-07-16T01:16:35;15.07;;;3.40;;
61393;SDS011;48555;50.952;-0.120;2023-07-16T01:19:01;13.43;;;3.00;;
61393;SDS011;48555;50.952;-0.120;2023-07-16T01:21:30;11.20;;;3.25;;
61393;SDS011;48555;50.952;-0.120;2023-07-16T01:29:41;15.05;;;3.35;;
61393;SDS011;48555;50.952;-0.120;2023-07-16T01:32:09;16.17;;;3.60;;
61393;SDS011;48555;50.952;-0.120;2023-07-16T01:34:36;14.15;;;3.20;;
61393;SDS011;48555;50.952;-0.120;2023-07-16T01:37:03;17.30;;;3.45;;
61393;SDS011;48555;50.952;-0.120;2023-07-16T01:39:30;14.88;;;3.30;;
61393;SDS011;48555;50.952;-0.120;2023-07-16T01:42:00;10.68;;;3.17;;
61393;SDS011;48555;50.952;-0.120;2023-07-16T01:44:25;14.00;;;3.40;;
61393;SDS011;48555;50.952;-0.120;2023-07-16T01:47:10;13.52;;;3.20;;
61393;SDS011;48555;50.952;-0.120;2023-07-16T01:49:36;16.95;;;3.08;;
61393;SDS011;48555;50.952;-0.120;2023-07-16T01:52:01;12.27;;;3.55;;
61393;SDS011;48555;50.952;-0.120;2023-07-16T01:54:28;13.25;;;3.00;;
61393;SDS011;48555;50.952;-0.120;2023-07-16T01:56:53;12.77;;;3.03;;
61393;SDS011;48555;50.952;-0.120;2023-07-16T01:59:19;11.32;;;2.45;;
61393;SDS011;48555;50.952;-0.120;2023-07-16T02:01:44;12.52;;;3.35;;
61393;SDS011;48555;50.952;-0.120;2023-07-16T02:04:09;16.15;;;3.35;;
61393;SDS011;48555;50.952;-0.120;2023-07-16T02:06:35;20.05;;;3.60;;
61393;SDS011;48555;50.952;-0.120;2023-07-16T02:09:00;19.08;;;3.40;;
61393;SDS011;48555;50.952;-0.120;2023-07-16T02:11:25;14.02;;;2.90;;
61393;SDS011;48555;50.952;-0.120;2023-07-16T02:13:51;12.73;;;2.72;;
61393;SDS011;48555;50.952;-0.120;2023-07-16T02:16:16;12.57;;;2.95;;
61393;SDS011;48555;50.952;-0.120;2023-07-16T02:18:41;13.57;;;2.80;;
61393;SDS011;48555;50.952;-0.120;2023-07-16T02:21:07;11.88;;;2.58;;
61393;SDS011;48555;50.952;-0.120;2023-07-16T02:23:32;14.60;;;2.85;;
61393;SDS011;48555;50.952;-0.120;2023-07-16T02:25:57;14.65;;;2.97;;
61393;SDS011;48555;50.952;-0.120;2023-07-16T02:28:23;13.48;;;3.13;;
61393;SDS011;48555;50.952;-0.120;2023-07-16T02:30:49;13.73;;;2.95;;
61393;SDS011;48555;50.952;-0.120;2023-07-16T02:33:15;11.68;;;2.67;;
61393;SDS011;48555;50.952;-0.120;2023-07-16T02:35:40;15.05;;;2.90;;
61393;SDS011;48555;50.952;-0.120;2023-07-16T02:38:05;17.02;;;3.30;;
61393;SDS011;48555;50.952;-0.120;2023-07-16T02:40:31;11.40;;;2.80;;
61393;SDS011;48555;50.952;-0.120;2023-07-16T02:42:56;9.55;;;2.80;;
61393;SDS011;48555;50.952;-0.120;2023-07-16T02:45:21;13.80;;;3.28;;
61393;SDS011;48555;50.952;-0.120;2023-07-16T02:47:47;13.45;;;3.05;;
61393;SDS011;48555;50.952;-0.120;2023-07-16T02:50:12;13.23;;;2.80;;
61393;SDS011;48555;50.952;-0.120;2023-07-16T02:52:37;14.18;;;2.70;;
61393;SDS011;48555;50.952;-0.120;2023-07-16T02:55:03;14.05;;;3.13;;
61393;SDS011;48555;50.952;-0.120;2023-07-16T02:57:28;15.65;;;2.67;;
61393;SDS011;48555;50.952;-0.120;2023-07-16T02:59:54;17.85;;;3.75;;
61393;SDS011;48555;50.952;-0.120;2023-07-16T03:02:19;15.15;;;2.70;;
61393;SDS011;48555;50.952;-0.120;2023-07-16T03:04:44;12.75;;;2.92;;
61393;SDS011;48555;50.952;-0.120;2023-07-16T03:07:10;17.63;;;3.38;;
61393;SDS011;48555;50.952;-0.120;2023-07-16T03:09:35;17.83;;;3.47;;
61393;SDS011;48555;50.952;-0.120;2023-07-16T03:12:01;14.40;;;2.90;;
61393;SDS011;48555;50.952;-0.120;2023-07-16T03:14:26;13.45;;;2.95;;
61393;SDS011;48555;50.952;-0.120;2023-07-16T03:16:51;15.15;;;3.33;;
61393;SDS011;48555;50.952;-0.120;2023-07-16T03:19:17;14.88;;;3.65;;
61393;SDS011;48555;50.952;-0.120;2023-07-16T03:21:42;14.05;;;3.42;;
61393;SDS011;48555;50.952;-0.120;2023-07-16T03:24:07;17.77;;;3.20;;
61393;SDS011;48555;50.952;-0.120;2023-07-16T03:26:33;14.57;;;3.05;;
61393;SDS011;48555;50.952;-0.120;2023-07-16T03:28:58;14.95;;;3.58;;
61393;SDS011;48555;50.952;-0.120;2023-07-16T03:31:23;16.13;;;3.45;;
61393;SDS011;48555;50.952;-0.120;2023-07-16T03:33:48;15.07;;;3.55;;
61393;SDS011;48555;50.952;-0.120;2023-07-16T03:36:14;16.10;;;3.38;;
61393;SDS011;48555;50.952;-0.120;2023-07-16T03:38:39;14.73;;;3.28;;
61393;SDS011;48555;50.952;-0.120;2023-07-16T03:41:05;16.92;;;3.60;;
61393;SDS011;48555;50.952;-0.120;2023-07-16T03:43:30;18.73;;;3.53;;
61393;SDS011;48555;50.952;-0.120;2023-07-16T03:45:55;13.45;;;3.15;;
61393;SDS011;48555;50.952;-0.120;2023-07-16T03:48:20;15.52;;;3.53;;
61393;SDS011;48555;50.952;-0.120;2023-07-16T03:50:46;11.23;;;3.20;;
61393;SDS011;48555;50.952;-0.120;2023-07-16T03:53:11;13.57;;;3.35;;
61393;SDS011;48555;50.952;-0.120;2023-07-16T03:55:37;14.73;;;2.80;;
61393;SDS011;48555;50.952;-0.120;2023-07-16T03:58:02;15.68;;;3.22;;
61393;SDS011;48555;50.952;-0.120;2023-07-16T04:00:27;9.52;;;2.85;;
61393;SDS011;48555;50.952;-0.120;2023-07-16T04:02:53;14.70;;;2.97;;
61393;SDS011;48555;50.952;-0.120;2023-07-16T04:05:18;13.07;;;3.00;;
61393;SDS011;48555;50.952;-0.120;2023-07-16T04:07:44;16.00;;;3.00;;
61393;SDS011;48555;50.952;-0.120;2023-07-16T04:10:09;14.02;;;2.83;;
61393;SDS011;48555;50.952;-0.120;2023-07-16T04:12:34;16.63;;;3.08;;
61393;SDS011;48555;50.952;-0.120;2023-07-16T04:15:00;15.20;;;2.97;;
61393;SDS011;48555;50.952;-0.120;2023-07-16T04:17:25;11.70;;;2.72;;
61393;SDS011;48555;50.952;-0.120;2023-07-16T04:19:51;15.82;;;3.28;;
61393;SDS011;48555;50.952;-0.120;2023-07-16T04:22:16;15.38;;;3.28;;
61393;SDS011;48555;50.952;-0.120;2023-07-16T04:24:42;14.13;;;3.30;;
61393;SDS011;48555;50.952;-0.120;2023-07-16T04:27:07;15.38;;;3.53;;
61393;SDS011;48555;50.952;-0.120;2023-07-16T04:29:33;10.43;;;3.17;;
61393;SDS011;48555;50.952;-0.120;2023-07-16T04:31:58;13.90;;;3.30;;
61393;SDS011;48555;50.952;-0.120;2023-07-16T04:34:23;11.98;;;2.78;;
61393;SDS011;48555;50.952;-0.120;2023-07-16T04:36:49;13.07;;;3.30;;
61393;SDS011;48555;50.952;-0.120;2023-07-16T04:39:14;17.02;;;3.22;;
61393;SDS011;48555;50.952;-0.120;2023-07-16T04:41:39;16.17;;;3.13;;
61393;SDS011;48555;50.952;-0.120;2023-07-16T04:44:05;10.57;;;2.70;;
61393;SDS011;48555;50.952;-0.120;2023-07-16T04:46:30;13.50;;;3.13;;
61393;SDS011;48555;50.952;-0.120;2023-07-16T04:48:56;14.32;;;3.53;;
61393;SDS011;48555;50.952;-0.120;2023-07-16T04:51:21;14.77;;;3.20;;
61393;SDS011;48555;50.952;-0.120;2023-07-16T04:53:47;18.73;;;3.28;;
61393;SDS011;48555;50.952;-0.120;2023-07-16T04:56:13;14.45;;;3.33;;
61393;SDS011;48555;50.952;-0.120;2023-07-16T04:58:39;14.10;;;3.10;;
61393;SDS011;48555;50.952;-0.120;2023-07-16T05:01:05;11.57;;;2.75;;
61393;SDS011;48555;50.952;-0.120;2023-07-16T05:03:30;11.93;;;2.78;;
61393;SDS011;48555;50.952;-0.120;2023-07-16T05:05:55;11.13;;;2.97;;
61393;SDS011;48555;50.952;-0.120;2023-07-16T05:08:20;17.73;;;3.03;;
61393;SDS011;48555;50.952;-0.120;2023-07-16T05:10:46;10.40;;;2.75;;
61393;SDS011;48555;50.952;-0.120;2023-07-16T05:13:11;15.27;;;2.67;;
61393;SDS011;48555;50.952;-0.120;2023-07-16T05:15:37;13.00;;;2.83;;
61393;SDS011;48555;50.952;-0.120;2023-07-16T05:18:02;14.10;;;3.15;;
61393;SDS011;48555;50.952;-0.120;2023-07-16T05:20:28;14.05;;;3.35;;
61393;SDS011;48555;50.952;-0.120;2023-07-16T05:22:53;10.75;;;3.10;;
61393;SDS011;48555;50.952;-0.120;2023-07-16T05:25:19;11.55;;;2.90;;
61393;SDS011;48555;50.952;-0.120;2023-07-16T05:27:44;14.43;;;3.25;;
61393;SDS011;48555;50.952;-0.120;2023-07-16T05:30:09;16.67;;;2.90;;
61393;SDS011;48555;50.952;-0.120;2023-07-16T05:32:35;13.05;;;3.20;;
61393;SDS011;48555;50.952;-0.120;2023-07-16T05:35:00;18.13;;;3.38;;
61393;SDS011;48555;50.952;-0.120;2023-07-16T05:37:26;14.35;;;3.20;;
61393;SDS011;48555;50.952;-0.120;2023-07-16T05:39:51;12.15;;;3.00;;
61393;SDS011;48555;50.952;-0.120;2023-07-16T05:42:17;14.30;;;3.05;;
61393;SDS011;48555;50.952;-0.120;2023-07-16T05:44:42;14.05;;;3.33;;
61393;SDS011;48555;50.952;-0.120;2023-07-16T05:47:09;13.00;;;2.75;;
61393;SDS011;48555;50.952;-0.120;2023-07-16T05:49:34;14.23;;;3.22;;
61393;SDS011;48555;50.952;-0.120;2023-07-16T05:52:00;12.70;;;2.67;;
61393;SDS011;48555;50.952;-0.120;2023-07-16T05:54:25;13.20;;;3.08;;
61393;SDS011;48555;50.952;-0.120;2023-07-16T05:56:50;10.57;;;2.72;;
61393;SDS011;48555;50.952;-0.120;2023-07-16T05:59:16;11.23;;;3.15;;
61393;SDS011;48555;50.952;-0.120;2023-07-16T06:01:41;13.35;;;3.08;;
61393;SDS011;48555;50.952;-0.120;2023-07-16T06:04:06;11.75;;;2.95;;
61393;SDS011;48555;50.952;-0.120;2023-07-16T06:06:32;13.55;;;3.40;;
61393;SDS011;48555;50.952;-0.120;2023-07-16T06:08:57;14.05;;;3.47;;
61393;SDS011;48555;50.952;-0.120;2023-07-16T06:11:22;11.27;;;3.10;;
61393;SDS011;48555;50.952;-0.120;2023-07-16T06:13:48;9.68;;;2.78;;
61393;SDS011;48555;50.952;-0.120;2023-07-16T06:16:13;13.35;;;3.35;;
61393;SDS011;48555;50.952;-0.120;2023-07-16T06:18:38;11.73;;;2.72;;
61393;SDS011;48555;50.952;-0.120;2023-07-16T06:21:05;11.48;;;2.95;;
61393;SDS011;48555;50.952;-0.120;2023-07-16T06:23:30;12.80;;;3.13;;
61393;SDS011;48555;50.952;-0.120;2023-07-16T06:25:56;10.95;;;2.90;;
61393;SDS011;48555;50.952;-0.120;2023-07-16T06:28:22;12.93;;;3.20;;
61393;SDS011;48555;50.952;-0.120;2023-07-16T06:30:49;12.25;;;2.60;;
61393;SDS011;48555;50.952;-0.120;2023-07-16T06:33:14;9.60;;;2.53;;
61393;SDS011;48555;50.952;-0.120;2023-07-16T06:35:43;11.48;;;3.00;;
61393;SDS011;48555;50.952;-0.120;2023-07-16T06:38:09;10.52;;;2.50;;
61393;SDS011;48555;50.952;-0.120;2023-07-16T06:40:34;10.07;;;2.95;;
61393;SDS011;48555;50.952;-0.120;2023-07-16T06:42:59;12.00;;;2.78;;
61393;SDS011;48555;50.952;-0.120;2023-07-16T06:45:25;10.45;;;2.75;;
61393;SDS011;48555;50.952;-0.120;2023-07-16T06:47:50;10.38;;;2.50;;
61393;SDS011;48555;50.952;-0.120;2023-07-16T06:50:16;14.80;;;3.17;;
61393;SDS011;48555;50.952;-0.120;2023-07-16T06:52:41;11.57;;;3.00;;
61393;SDS011;48555;50.952;-0.120;2023-07-16T06:55:06;9.40;;;2.70;;
61393;SDS011;48555;50.952;-0.120;2023-07-16T06:57:32;11.27;;;2.47;;
61393;SDS011;48555;50.952;-0.120;2023-07-16T06:59:57;12.00;;;2.80;;
61393;SDS011;48555;50.952;-0.120;2023-07-16T07:02:23;10.45;;;2.60;;
61393;SDS011;48555;50.952;-0.120;2023-07-16T07:04:48;12.35;;;2.38;;
61393;SDS011;48555;50.952;-0.120;2023-07-16T07:07:14;10.48;;;2.60;;
61393;SDS011;48555;50.952;-0.120;2023-07-16T07:09:40;8.50;;;2.20;;
61393;SDS011;48555;50.952;-0.120;2023-07-16T07:12:05;11.27;;;2.08;;
61393;SDS011;48555;50.952;-0.120;2023-07-16T07:14:32;10.30;;;2.60;;
61393;SDS011;48555;50.952;-0.120;2023-07-16T07:16:58;9.65;;;2.63;;
61393;SDS011;48555;50.952;-0.120;2023-07-16T07:19:23;11.02;;;2.80;;
61393;SDS011;48555;50.952;-0.120;2023-07-16T07:21:48;9.80;;;2.72;;
61393;SDS011;48555;50.952;-0.120;2023-07-16T07:24:14;8.40;;;2.45;;
61393;SDS011;48555;50.952;-0.120;2023-07-16T07:26:39;10.07;;;2.85;;
61393;SDS011;48555;50.952;-0.120;2023-07-16T07:29:04;11.38;;;3.15;;
61393;SDS011;48555;50.952;-0.120;2023-07-16T07:31:30;9.18;;;2.90;;
61393;SDS011;48555;50.952;-0.120;2023-07-16T07:33:55;9.05;;;2.70;;
61393;SDS011;48555;50.952;-0.120;2023-07-16T07:36:22;12.43;;;2.60;;
61393;SDS011;48555;50.952;-0.120;2023-07-16T07:38:47;11.80;;;2.88;;
61393;SDS011;48555;50.952;-0.120;2023-07-16T07:41:13;12.40;;;2.88;;
61393;SDS011;48555;50.952;-0.120;2023-07-16T07:43:38;11.25;;;2.70;;
61393;SDS011;48555;50.952;-0.120;2023-07-16T07:46:03;12.18;;;3.20;;
61393;SDS011;48555;50.952;-0.120;2023-07-16T07:48:29;13.23;;;2.78;;
61393;SDS011;48555;50.952;-0.120;2023-07-16T07:50:54;8.50;;;2.22;;
61393;SDS011;48555;50.952;-0.120;2023-07-16T07:53:19;14.30;;;2.72;;
61393;SDS011;48555;50.952;-0.120;2023-07-16T07:55:45;9.32;;;2.40;;
61393;SDS011;48555;50.952;-0.120;2023-07-16T07:58:10;13.50;;;2.60;;
61393;SDS011;48555;50.952;-0.120;2023-07-16T08:00:36;13.07;;;3.03;;
61393;SDS011;48555;50.952;-0.120;2023-07-16T08:03:02;10.60;;;2.80;;
61393;SDS011;48555;50.952;-0.120;2023-07-16T08:05:27;10.48;;;2.65;;
61393;SDS011;48555;50.952;-0.120;2023-07-16T08:07:53;14.25;;;2.78;;
61393;SDS011;48555;50.952;-0.120;2023-07-16T08:10:18;9.65;;;2.40;;
61393;SDS011;48555;50.952;-0.120;2023-07-16T08:12:44;11.85;;;2.47;;
61393;SDS011;48555;50.952;-0.120;2023-07-16T08:15:10;11.50;;;2.60;;
61393;SDS011;48555;50.952;-0.120;2023-07-16T08:17:39;12.70;;;2.60;;
61393;SDS011;48555;50.952;-0.120;2023-07-16T08:20:08;8.70;;;2.30;;
61393;SDS011;48555;50.952;-0.120;2023-07-16T08:22:34;15.38;;;3.00;;
61393;SDS011;48555;50.952;-0.120;2023-07-16T08:24:59;11.65;;;2.70;;
61393;SDS011;48555;50.952;-0.120;2023-07-16T08:27:24;11.65;;;2.75;;
61393;SDS011;48555;50.952;-0.120;2023-07-16T08:29:50;13.30;;;2.67;;
61393;SDS011;48555;50.952;-0.120;2023-07-16T08:32:15;13.60;;;2.80;;
61393;SDS011;48555;50.952;-0.120;2023-07-16T08:34:40;10.55;;;2.33;;
61393;SDS011;48555;50.952;-0.120;2023-07-16T08:37:06;12.95;;;2.65;;
61393;SDS011;48555;50.952;-0.120;2023-07-16T08:39:31;11.27;;;2.40;;
61393;SDS011;48555;50.952;-0.120;2023-07-16T08:41:57;9.68;;;2.20;;
61393;SDS011;48555;50.952;-0.120;2023-07-16T08:44:23;9.68;;;2.35;;
61393;SDS011;48555;50.952;-0.120;2023-07-16T08:46:49;7.75;;;2.05;;
61393;SDS011;48555;50.952;-0.120;2023-07-16T08:49:15;12.25;;;3.05;;
61393;SDS011;48555;50.952;-0.120;2023-07-16T08:51:43;8.60;;;2.17;;
61393;SDS011;48555;50.952;-0.120;2023-07-16T08:54:11;8.75;;;2.00;;
61393;SDS011;48555;50.952;-0.120;2023-07-16T08:56:36;9.95;;;2.45;;
61393;SDS011;48555;50.952;-0.120;2023-07-16T08:59:02;7.28;;;1.90;;
61393;SDS011;48555;50.952;-0.120;2023-07-16T09:01:28;11.88;;;2.35;;
61393;SDS011;48555;50.952;-0.120;2023-07-16T09:03:53;12.40;;;2.60;;
61393;SDS011;48555;50.952;-0.120;2023-07-16T09:06:19;8.88;;;2.30;;
61393;SDS011;48555;50.952;-0.120;2023-07-16T09:08:44;9.32;;;2.40;;
61393;SDS011;48555;50.952;-0.120;2023-07-16T09:11:12;8.45;;;2.35;;
61393;SDS011;48555;50.952;-0.120;2023-07-16T09:13:43;8.15;;;2.22;;
61393;SDS011;48555;50.952;-0.120;2023-07-16T09:16:09;6.65;;;1.95;;
61393;SDS011;48555;50.952;-0.120;2023-07-16T09:18:35;10.73;;;2.30;;
61393;SDS011;48555;50.952;-0.120;2023-07-16T09:21:00;8.73;;;2.17;;
61393;SDS011;48555;50.952;-0.120;2023-07-16T09:23:31;8.50;;;1.95;;
61393;SDS011;48555;50.952;-0.120;2023-07-16T09:25:57;11.35;;;2.33;;
61393;SDS011;48555;50.952;-0.120;2023-07-16T09:28:23;9.98;;;2.47;;
61393;SDS011;48555;50.952;-0.120;2023-07-16T09:30:49;9.98;;;2.15;;
61393;SDS011;48555;50.952;-0.120;2023-07-16T09:33:16;14.27;;;2.60;;
61393;SDS011;48555;50.952;-0.120;2023-07-16T09:35:43;11.68;;;2.03;;
61393;SDS011;48555;50.952;-0.120;2023-07-16T09:38:09;10.70;;;2.50;;
61393;SDS011;48555;50.952;-0.120;2023-07-16T09:40:38;9.13;;;2.40;;
61393;SDS011;48555;50.952;-0.120;2023-07-16T09:43:06;8.02;;;2.25;;
61393;SDS011;48555;50.952;-0.120;2023-07-16T09:45:31;12.98;;;2.80;;
61393;SDS011;48555;50.952;-0.120;2023-07-16T09:47:57;13.00;;;2.70;;
61393;SDS011;48555;50.952;-0.120;2023-07-16T09:50:23;12.13;;;2.80;;
61393;SDS011;48555;50.952;-0.120;2023-07-16T09:52:49;9.30;;;2.03;;
61393;SDS011;48555;50.952;-0.120;2023-07-16T09:55:16;7.93;;;2.08;;
61393;SDS011;48555;50.952;-0.120;2023-07-16T09:57:42;11.70;;;2.53;;
61393;SDS011;48555;50.952;-0.120;2023-07-16T10:00:09;8.68;;;2.28;;
61393;SDS011;48555;50.952;-0.120;2023-07-16T10:07:37;9.63;;;2.30;;
61393;SDS011;48555;50.952;-0.120;2023-07-16T10:10:07;8.63;;;2.10;;
61393;SDS011;48555;50.952;-0.120;2023-07-16T10:12:34;11.38;;;2.53;;
61393;SDS011;48555;50.952;-0.120;2023-07-16T10:14:59;7.53;;;1.90;;
61393;SDS011;48555;50.952;-0.120;2023-07-16T10:17:29;13.55;;;2.38;;
61393;SDS011;48555;50.952;-0.120;2023-07-16T10:19:56;11.00;;;2.53;;
61393;SDS011;48555;50.952;-0.120;2023-07-16T10:22:33;7.32;;;2.00;;
61393;SDS011;48555;50.952;-0.120;2023-07-16T10:25:10;9.27;;;2.10;;
61393;SDS011;48555;50.952;-0.120;2023-07-16T10:27:47;7.53;;;2.25;;
61393;SDS011;48555;50.952;-0.120;2023-07-16T10:30:14;7.90;;;1.98;;
61393;SDS011;48555;50.952;-0.120;2023-07-16T10:32:40;7.32;;;2.30;;
61393;SDS011;48555;50.952;-0.120;2023-07-16T10:35:06;7.78;;;2.20;;
61393;SDS011;48555;50.952;-0.120;2023-07-16T10:37:34;9.07;;;2.10;;
61393;SDS011;48555;50.952;-0.120;2023-07-16T10:40:00;7.53;;;2.30;;
61393;SDS011;48555;50.952;-0.120;2023-07-16T10:42:28;10.30;;;2.40;;
61393;SDS011;48555;50.952;-0.120;2023-07-16T10:44:54;7.63;;;2.17;;
61393;SDS011;48555;50.952;-0.120;2023-07-16T10:47:23;8.50;;;2.50;;
61393;SDS011;48555;50.952;-0.120;2023-07-16T10:49:49;9.43;;;2.38;;
61393;SDS011;48555;50.952;-0.120;2023-07-16T10:52:17;7.93;;;2.33;;
61393;SDS011;48555;50.952;-0.120;2023-07-16T10:54:42;6.28;;;1.88;;
61393;SDS011;48555;50.952;-0.120;2023-07-16T10:57:08;9.45;;;2.35;;
61393;SDS011;48555;50.952;-0.120;2023-07-16T10:59:37;7.30;;;1.80;;
61393;SDS011;48555;50.952;-0.120;2023-07-16T11:02:08;7.30;;;1.77;;
61393;SDS011;48555;50.952;-0.120;2023-07-16T11:04:36;8.75;;;2.20;;
61393;SDS011;48555;50.952;-0.120;2023-07-16T11:07:08;8.80;;;2.30;;
61393;SDS011;48555;50.952;-0.120;2023-07-16T11:09:40;10.77;;;2.63;;
61393;SDS011;48555;50.952;-0.120;2023-07-16T11:12:10;7.68;;;2.40;;
61393;SDS011;48555;50.952;-0.120;2023-07-16T11:14:37;9.55;;;2.33;;
61393;SDS011;48555;50.952;-0.120;2023-07-16T11:17:06;9.88;;;2.08;;
61393;SDS011;48555;50.952;-0.120;2023-07-16T11:19:33;8.02;;;2.30;;
61393;SDS011;48555;50.952;-0.120;2023-07-16T11:22:00;7.13;;;2.50;;
61393;SDS011;48555;50.952;-0.120;2023-07-16T11:24:26;7.85;;;2.35;;
61393;SDS011;48555;50.952;-0.120;2023-07-16T11:26:52;7.45;;;1.95;;
61393;SDS011;48555;50.952;-0.120;2023-07-16T11:29:19;8.65;;;2.00;;
61393;SDS011;48555;50.952;-0.120;2023-07-16T11:31:48;10.23;;;2.33;;
61393;SDS011;48555;50.952;-0.120;2023-07-16T11:34:14;7.20;;;2.20;;
61393;SDS011;48555;50.952;-0.120;2023-07-16T11:36:40;8.60;;;2.40;;
61393;SDS011;48555;50.952;-0.120;2023-07-16T11:39:05;9.48;;;2.75;;
61393;SDS011;48555;50.952;-0.120;2023-07-16T11:41:30;11.80;;;2.88;;
61393;SDS011;48555;50.952;-0.120;2023-07-16T11:43:59;7.15;;;2.35;;
61393;SDS011;48555;50.952;-0.120;2023-07-16T11:46:30;9.05;;;2.53;;
61393;SDS011;48555;50.952;-0.120;2023-07-16T11:48:58;13.15;;;2.70;;
61393;SDS011;48555;50.952;-0.120;2023-07-16T11:51:23;12.70;;;2.58;;
61393;SDS011;48555;50.952;-0.120;2023-07-16T11:53:48;10.98;;;2.80;;
61393;SDS011;48555;50.952;-0.120;2023-07-16T11:56:14;9.52;;;2.80;;
61393;SDS011;48555;50.952;-0.120;2023-07-16T11:58:39;10.30;;;2.53;;
61393;SDS011;48555;50.952;-0.120;2023-07-16T12:01:04;9.85;;;2.55;;
61393;SDS011;48555;50.952;-0.120;2023-07-16T12:03:30;12.50;;;2.45;;
61393;SDS011;48555;50.952;-0.120;2023-07-16T12:05:55;7.53;;;2.58;;
61393;SDS011;48555;50.952;-0.120;2023-07-16T12:08:20;9.43;;;2.35;;
61393;SDS011;48555;50.952;-0.120;2023-07-16T12:10:45;10.15;;;2.80;;
61393;SDS011;48555;50.952;-0.120;2023-07-16T12:13:11;8.73;;;2.72;;
61393;SDS011;48555;50.952;-0.120;2023-07-16T12:15:36;11.18;;;3.20;;
61393;SDS011;48555;50.952;-0.120;2023-07-16T12:18:02;10.07;;;2.20;;
61393;SDS011;48555;50.952;-0.120;2023-07-16T12:20:28;11.30;;;2.58;;
61393;SDS011;48555;50.952;-0.120;2023-07-16T12:22:53;8.32;;;2.80;;
61393;SDS011;48555;50.952;-0.120;2023-07-16T12:25:18;10.15;;;2.28;;
61393;SDS011;48555;50.952;-0.120;2023-07-16T12:27:44;11.25;;;2.95;;
61393;SDS011;48555;50.952;-0.120;2023-07-16T12:30:10;11.50;;;3.00;;
61393;SDS011;48555;50.952;-0.120;2023-07-16T12:32:36;10.32;;;2.85;;
61393;SDS011;48555;50.952;-0.120;2023-07-16T12:35:01;13.02;;;3.00;;
61393;SDS011;48555;50.952;-0.120;2023-07-16T12:37:28;7.95;;;2.53;;
61393;SDS011;48555;50.952;-0.120;2023-07-16T12:39:53;8.43;;;2.30;;
61393;SDS011;48555;50.952;-0.120;2023-07-16T12:42:19;8.75;;;2.30;;
61393;SDS011;48555;50.952;-0.120;2023-07-16T12:44:44;6.95;;;2.03;;
61393;SDS011;48555;50.952;-0.120;2023-07-16T12:47:09;9.25;;;2.47;;
61393;SDS011;48555;50.952;-0.120;2023-07-16T12:49:34;7.10;;;2.40;;
61393;SDS011;48555;50.952;-0.120;2023-07-16T12:52:00;6.10;;;1.67;;
61393;SDS011;48555;50.952;-0.120;2023-07-16T12:54:25;7.38;;;1.90;;
61393;SDS011;48555;50.952;-0.120;2023-07-16T12:56:51;7.40;;;2.03;;
61393;SDS011;48555;50.952;-0.120;2023-07-16T12:59:16;6.38;;;2.03;;
61393;SDS011;48555;50.952;-0.120;2023-07-16T13:01:41;6.57;;;2.10;;
61393;SDS011;48555;50.952;-0.120;2023-07-16T13:04:07;8.93;;;2.70;;
61393;SDS011;48555;50.952;-0.120;2023-07-16T13:06:32;8.85;;;2.70;;
61393;SDS011;48555;50.952;-0.120;2023-07-16T13:08:57;8.27;;;2.60;;
61393;SDS011;48555;50.952;-0.120;2023-07-16T13:11:23;8.23;;;2.13;;
61393;SDS011;48555;50.952;-0.120;2023-07-16T13:13:49;7.93;;;2.20;;
61393;SDS011;48555;50.952;-0.120;2023-07-16T13:16:14;9.00;;;2.65;;
61393;SDS011;48555;50.952;-0.120;2023-07-16T13:18:39;8.73;;;2.10;;
61393;SDS011;48555;50.952;-0.120;2023-07-16T13:21:05;7.25;;;1.92;;
61393;SDS011;48555;50.952;-0.120;2023-07-16T13:23:30;7.72;;;2.05;;
61393;SDS011;48555;50.952;-0.120;2023-07-16T13:25:55;8.60;;;2.15;;
61393;SDS011;48555;50.952;-0.120;2023-07-16T13:28:21;8.07;;;2.60;;
61393;SDS011;48555;50.952;-0.120;2023-07-16T13:30:48;12.27;;;2.45;;
61393;SDS011;48555;50.952;-0.120;2023-07-16T13:33:13;8.70;;;2.83;;
61393;SDS011;48555;50.952;-0.120;2023-07-16T13:35:39;7.03;;;2.42;;
61393;SDS011;48555;50.952;-0.120;2023-07-16T13:38:04;9.93;;;2.40;;
61393;SDS011;48555;50.952;-0.120;2023-07-16T13:40:29;9.27;;;2.63;;
61393;SDS011;48555;50.952;-0.120;2023-07-16T13:42:55;9.68;;;2.53;;
61393;SDS011;48555;50.952;-0.120;2023-07-16T13:45:20;8.48;;;2.25;;
61393;SDS011;48555;50.952;-0.120;2023-07-16T13:47:46;8.55;;;2.22;;
61393;SDS011;48555;50.952;-0.120;2023-07-16T13:50:11;8.02;;;2.13;;
61393;SDS011;48555;50.952;-0.120;2023-07-16T13:52:36;9.07;;;2.38;;
61393;SDS011;48555;50.952;-0.120;2023-07-16T13:55:02;8.60;;;2.47;;
61393;SDS011;48555;50.952;-0.120;2023-07-16T13:57:29;10.48;;;2.58;;
61393;SDS011;48555;50.952;-0.120;2023-07-16T13:59:54;10.63;;;2.85;;
61393;SDS011;48555;50.952;-0.120;2023-07-16T14:02:20;9.00;;;2.60;;
61393;SDS011;48555;50.952;-0.120;2023-07-16T14:04:45;12.60;;;3.20;;
61393;SDS011;48555;50.952;-0.120;2023-07-16T14:07:11;12.63;;;3.03;;
61393;SDS011;48555;50.952;-0.120;2023-07-16T14:09:36;11.60;;;2.90;;
61393;SDS011;48555;50.952;-0.120;2023-07-16T14:12:02;13.98;;;2.83;;
61393;SDS011;48555;50.952;-0.120;2023-07-16T14:14:27;15.15;;;3.17;;
61393;SDS011;48555;50.952;-0.120;2023-07-16T14:16:53;15.38;;;3.05;;
61393;SDS011;48555;50.952;-0.120;2023-07-16T14:19:19;12.55;;;3.10;;
61393;SDS011;48555;50.952;-0.120;2023-07-16T14:21:44;12.52;;;2.55;;
61393;SDS011;48555;50.952;-0.120;2023-07-16T14:24:09;9.02;;;2.38;;
61393;SDS011;48555;50.952;-0.120;2023-07-16T14:26:35;7.97;;;2.53;;
61393;SDS011;48555;50.952;-0.120;2023-07-16T14:29:00;10.05;;;2.42;;